Home > Products > Valid Products > TAF

000
FTUS43 KBIS 070400 AAA
TAFISN
TAF AMD
KISN 070428Z 0704/0724 32018KT P6SM OVC025
      TEMPO 0708/0712 SCT015
     FM071200 26009KT P6SM BKN015
     FM072100 27009KT P6SM SCT020=



000
FTUS43 KBIS 070400 AAA
TAFBIS
TAF AMD
KBIS 070414Z 0704/0724 32010KT P6SM SCT035
     FM070530 31013KT P6SM OVC020
     FM072200 29008KT P6SM SCT020 BKN035=



000
FTUS43 KBIS 062300
TAFDIK
TAF
KDIK 062330Z 0700/0724 31015KT P6SM BKN090
     FM070800 30010KT P6SM OVC020
     FM071900 29010KT P6SM SCT020 BKN050=



000
FTUS43 KBIS 062300
TAFISN
TAF
KISN 062330Z 0700/0724 29013KT P6SM BKN040 OVC070
     FM070600 28009KT P6SM OVC020
     FM072100 27009KT P6SM SCT020=



000
FTUS43 KBIS 062300
TAFMOT
TAF
KMOT 062330Z 0700/0724 26016G23KT P6SM BKN060
     FM070400 30014KT P6SM OVC020=



000
FTUS43 KBIS 062300
TAFMOT
TAF
KMOT 062330Z 0700/0724 26016G23KT P6SM BKN060
     FM070400 30014KT P6SM OVC020=



000
FTUS43 KBIS 062300
TAFBIS
TAF
KBIS 062330Z 0700/0724 29010KT P6SM OVC070
     FM070700 31013KT P6SM OVC020
     FM072200 29008KT P6SM SCT020 BKN035=



000
FTUS43 KBIS 062300
TAFJMS
TAF
KJMS 062330Z 0700/0724 28014KT P6SM BKN045 OVC070
     FM070600 30015G24KT P6SM BKN020 OVC035
     FM071700 28009KT P6SM SCT020 BKN035=



000
FTUS43 KBIS 062300
TAFBIS
TAF
KBIS 062330Z 0700/0724 29010KT P6SM OVC070
     FM070700 31013KT P6SM OVC020
     FM072200 29008KT P6SM SCT020 BKN035=



000
FTUS43 KBIS 062300
TAFJMS
TAF
KJMS 062330Z 0700/0724 28014KT P6SM BKN045 OVC070
     FM070600 30015G24KT P6SM BKN020 OVC035
     FM071700 28009KT P6SM SCT020 BKN035=



000
FTUS43 KBIS 062300
TAFDIK
TAF
KDIK 062330Z 0700/0724 31015KT P6SM BKN090
     FM070800 30010KT P6SM OVC020
     FM071900 29010KT P6SM SCT020 BKN050=



000
FTUS43 KBIS 062300
TAFISN
TAF
KISN 062330Z 0700/0724 29013KT P6SM BKN040 OVC070
     FM070600 28009KT P6SM OVC020
     FM072100 27009KT P6SM SCT020=



000
FTUS43 KBIS 062000 AAA
TAFDIK
TAF AMD
KDIK 062036Z 0621/0718 25013G23KT P6SM SCT100
     FM070100 29013KT P6SM OVC090
     FM070900 30010KT P6SM OVC020=



000
FTUS43 KBIS 062000 AAA
TAFMOT
TAF AMD
KMOT 062035Z 0621/0718 20012G22KT P6SM BKN060
     FM070500 28014KT P6SM OVC020
     FM071500 27010KT P6SM SCT020 OVC060=



000
FTUS43 KBIS 061700
TAFJMS
TAF
KJMS 061735Z 0618/0718 29009KT P6SM BKN090
     FM062000 23011KT P6SM OVC090
     FM070100 28015G25KT P6SM OVC080
     FM070600 30015G25KT P6SM OVC020
     FM071200 31012KT P6SM OVC050=



000
FTUS43 KBIS 061700
TAFDIK
TAF
KDIK 061735Z 0618/0718 26010KT P6SM OVC090
     FM062000 28018G28KT P6SM OVC090
     FM062300 29013KT P6SM OVC090
     FM070900 30010KT P6SM OVC030=



000
FTUS43 KBIS 061700
TAFBIS
TAF
KBIS 061735Z 0618/0718 25006KT P6SM BKN080
     FM062300 29012KT P6SM BKN070
     FM070800 31010KT P6SM OVC020=



000
FTUS43 KBIS 061700
TAFMOT
TAF
KMOT 061735Z 0618/0718 22011KT P6SM OVC090
     FM062000 25017G27KT P6SM OVC090
     FM070200 28017G27KT P6SM OVC020
     FM071000 27010KT P6SM OVC060=



000
FTUS43 KBIS 061700
TAFISN
TAF
KISN 061735Z 0618/0718 26011KT P6SM OVC080
     FM070000 29011KT P6SM OVC080
     FM070600 31009KT P6SM OVC020
     FM071400 26008KT P6SM OVC020=



000
FTUS43 KBIS 061100
TAFDIK
TAF
KDIK 061130Z 0612/0712 28009KT P6SM SCT050 BKN080
     FM062000 28020G32KT P6SM BKN070
     FM062300 29015KT P6SM SCT070 BKN100
     FM070800 30012KT P6SM BKN020 OVC030=



000
FTUS43 KBIS 061100
TAFJMS
TAF
KJMS 061130Z 0612/0712 30009KT P6SM SCT200
     FM061900 24011KT P6SM SCT070 BKN100
     FM062200 23012KT P6SM VCSH SCT025 BKN035
     FM070300 30015KT P6SM BKN035 BKN050
     FM070600 32015KT P6SM BKN020 OVC030=



000
FTUS43 KBIS 061100
TAFBIS
TAF
KBIS 061130Z 0612/0712 27005KT P6SM SCT100 SCT150
     FM061800 22010KT P6SM BKN070 BKN100
     FM070000 27010KT P6SM BKN050 BKN100
     FM070200 30013KT P6SM SCT035
     FM070700 31012KT P6SM BKN015 BKN035=



000
FTUS43 KBIS 061100
TAFISN
TAF
KISN 061130Z 0612/0712 20004KT P6SM SCT050 BKN080
     FM061700 23009KT P6SM SCT040 BKN080
     FM062000 29015KT P6SM SCT050 SCT080
     FM070300 30012KT P6SM BKN025 BKN035=



000
FTUS43 KBIS 061100
TAFMOT
TAF
KMOT 061130Z 0612/0712 26010KT P6SM SCT090
     FM061600 23010KT P6SM BKN060 OVC080
     FM062000 26010KT P6SM VCSH BKN050 OVC080
     FM070000 29018G25KT P6SM SCT015 BKN035
     FM070300 30018G25KT P6SM BKN015 BKN035=



000
FTUS43 KBIS 060900 AAA
TAFJMS
TAF AMD
KJMS 060953Z 0610/0706 27009KT P6SM SCT090
     FM062000 24011KT P6SM BKN050 BKN080
     FM070300 28015KT P6SM BKN035 BKN050=



000
FTUS43 KBIS 060700 AAA
TAFMOT
TAF AMD
KMOT 060722Z 0607/0706 29014KT P6SM SCT090
     FM061600 23010KT P6SM BKN060 OVC080
     FM062300 26015G22KT P6SM SCT045 BKN100
     FM070400 30015KT P6SM BKN015 BKN035=



000
FTUS43 KBIS 060500
TAFDIK
TAF
KDIK 060532Z 0606/0706 25009KT P6SM BKN070 BKN090
     FM061800 28020G32KT P6SM BKN070
     FM062300 29015KT P6SM SCT070 BKN100
     FM070500 30015KT P6SM SCT035 BKN050=



000
FTUS43 KBIS 060500
TAFISN
TAF
KISN 060532Z 0606/0706 28005KT P6SM SCT100
     FM061300 19006KT P6SM BKN060 OVC080
     FM061900 29012G21KT P6SM BKN080
     FM062200 30014KT P6SM SCT090
     FM070300 30012KT P6SM SCT025 BKN035=



000
FTUS43 KBIS 060500
TAFBIS
TAF
KBIS 060532Z 0606/0706 27005KT P6SM BKN070 BKN100
     FM061700 22010KT P6SM BKN070 BKN100
     FM062300 27010KT P6SM BKN070 BKN100
     FM070200 30013KT P6SM SCT035=



000
FTUS43 KBIS 060500
TAFMOT
TAF
KMOT 060532Z 0606/0706 25009KT P6SM SCT090
     FM061600 23010KT P6SM BKN060 OVC080
     FM062300 26015G22KT P6SM SCT045 BKN100
     FM070400 30015KT P6SM BKN015 BKN035=



000
FTUS43 KBIS 060500
TAFJMS
TAF
KJMS 060532Z 0606/0706 25009KT P6SM SCT090
     FM062000 24011KT P6SM BKN050 BKN080
     FM070300 28015KT P6SM BKN035 BKN050=



000
FTUS43 KBIS 060300 AAA
TAFMOT
TAF AMD
KMOT 060342Z 0604/0624 24009KT P6SM BKN090
     FM061600 25015G22KT P6SM BKN035=



000
FTUS43 KBIS 060300 AAA
TAFMOT
TAF AMD
KMOT 060342Z 0604/0624 24009KT P6SM BKN090
     FM061600 25015G22KT P6SM BKN035=



000
FTUS43 KBIS 052300
TAFISN
TAF
KISN 052326Z 0600/0624 25007KT P6SM BKN100
     FM061500 27014KT P6SM BKN050=



000
FTUS43 KBIS 052300
TAFDIK
TAF
KDIK 052326Z 0600/0624 27009KT P6SM BKN090
     FM061700 28016G23KT P6SM BKN070=



000
FTUS43 KBIS 052300
TAFBIS
TAF
KBIS 052326Z 0600/0624 VRB05KT P6SM SCT100
     FM061600 26011KT P6SM BKN050=



000
FTUS43 KBIS 052300
TAFJMS
TAF
KJMS 052326Z 0600/0624 25009KT P6SM SCT100
     FM062000 25011KT P6SM BKN050=



000
FTUS43 KBIS 052300
TAFMOT
TAF
KMOT 052326Z 0600/0624 26008KT P6SM BKN090
     FM061600 25015G22KT P6SM BKN035=



000
FTUS43 KBIS 051700
TAFDIK
TAF
KDIK 051726Z 0518/0618 28011KT P6SM SCT120=



000
FTUS43 KBIS 051700
TAFBIS
TAF
KBIS 051726Z 0518/0618 21009KT P6SM SCT100=



000
FTUS43 KBIS 051700
TAFJMS
TAF
KJMS 051726Z 0518/0618 20013KT P6SM SCT100
     FM060500 27011KT P6SM SCT100=



000
FTUS43 KBIS 051700
TAFISN
TAF
KISN 051726Z 0518/0618 25009KT P6SM SCT120=



000
FTUS43 KBIS 051700
TAFMOT
TAF
KMOT 051726Z 0518/0618 22011KT P6SM SCT090=



000
FTUS43 KBIS 051100
TAFISN
TAF
KISN 051120Z 0512/0612 19006KT P6SM SKC
     FM051400 25010KT P6SM SCT120=



000
FTUS43 KBIS 051100
TAFJMS
TAF
KJMS 051120Z 0512/0612 VRB05KT P6SM SKC
     FM051500 21013KT P6SM SCT100=



000
FTUS43 KBIS 051100
TAFMOT
TAF
KMOT 051120Z 0512/0612 19006KT P6SM SKC
     FM051500 25013KT P6SM SCT090=



000
FTUS43 KBIS 051100
TAFBIS
TAF
KBIS 051120Z 0512/0612 VRB05KT P6SM SKC
     FM051500 21011KT P6SM SCT100=



000
FTUS43 KBIS 051100
TAFDIK
TAF
KDIK 051120Z 0512/0612 19007KT P6SM SKC
     FM051400 25012KT P6SM SCT120=



000
FTUS43 KBIS 050900 AAA
TAFDIK
TAF AMD
KDIK 050920Z 0509/0606 19007KT P6SM SKC
     FM051200 25012KT P6SM SCT120=



000
FTUS43 KBIS 050500
TAFMOT
TAF
KMOT 050520Z 0506/0606 19006KT P6SM SKC
     FM051500 25013KT P6SM SCT090=



000
FTUS43 KBIS 050500
TAFISN
TAF
KISN 050520Z 0506/0606 19006KT P6SM SKC
     FM051400 25010KT P6SM SCT120=



000
FTUS43 KBIS 050500
TAFDIK
TAF
KDIK 050520Z 0506/0606 19007KT P6SM SKC
     FM051000 25012KT P6SM SCT120=



000
FTUS43 KBIS 050500
TAFJMS
TAF
KJMS 050520Z 0506/0606 VRB05KT P6SM SKC
     FM051500 21013KT P6SM SCT100=



000
FTUS43 KBIS 050500
TAFBIS
TAF
KBIS 050520Z 0506/0606 VRB05KT P6SM SKC
     FM051500 21011KT P6SM SCT100=



000
FTUS43 KBIS 050500
TAFJMS
TAF
KJMS 050520Z 0506/0606 VRB05KT P6SM SKC
     FM051500 21013KT P6SM SCT100=



000
FTUS43 KBIS 050500
TAFMOT
TAF
KMOT 050520Z 0506/0606 19006KT P6SM SKC
     FM051500 25013KT P6SM SCT090=



000
FTUS43 KBIS 050500
TAFDIK
TAF
KDIK 050520Z 0506/0606 19007KT P6SM SKC
     FM051000 25012KT P6SM SCT120=



000
FTUS43 KBIS 050500
TAFBIS
TAF
KBIS 050520Z 0506/0606 VRB05KT P6SM SKC
     FM051500 21011KT P6SM SCT100=



000
FTUS43 KBIS 050500
TAFISN
TAF
KISN 050520Z 0506/0606 19006KT P6SM SKC
     FM051400 25010KT P6SM SCT120=



000
FTUS43 KBIS 050100 AAA
TAFISN
TAF AMD
KISN 050115Z 0501/0524 21006KT P6SM SKC
     FM051400 25010KT P6SM SCT120
      AMD NOT SKED=



000
FTUS43 KBIS 042300
TAFDIK
TAF
KDIK 042320Z 0500/0524 21007KT P6SM SKC
     FM051000 25012KT P6SM SCT120=



000
FTUS43 KBIS 042300
TAFBIS
TAF
KBIS 042320Z 0500/0524 VRB05KT P6SM SKC
     FM051500 21011KT P6SM SCT100=



000
FTUS43 KBIS 042300
TAFMOT
TAF
KMOT 042320Z 0500/0524 22006KT P6SM SKC
     FM051500 25013KT P6SM SCT090=



000
FTUS43 KBIS 042300
TAFISN
TAF
KISN 042320Z 0500/0524 21006KT P6SM SKC
     FM051400 25010KT P6SM SCT120=



000
FTUS43 KBIS 042300
TAFJMS
TAF
KJMS 042320Z 0500/0524 VRB05KT P6SM SKC
     FM051500 21013KT P6SM SCT100=



000
FTUS43 KBIS 042300
TAFBIS
TAF
KBIS 042320Z 0500/0524 VRB05KT P6SM SKC
     FM051500 21011KT P6SM SCT100=



000
FTUS43 KBIS 042300
TAFMOT
TAF
KMOT 042320Z 0500/0524 22006KT P6SM SKC
     FM051500 25013KT P6SM SCT090=



000
FTUS43 KBIS 042300
TAFISN
TAF
KISN 042320Z 0500/0524 21006KT P6SM SKC
     FM051400 25010KT P6SM SCT120=



000
FTUS43 KBIS 042300
TAFJMS
TAF
KJMS 042320Z 0500/0524 VRB05KT P6SM SKC
     FM051500 21013KT P6SM SCT100=



000
FTUS43 KBIS 042300
TAFDIK
TAF
KDIK 042320Z 0500/0524 21007KT P6SM SKC
     FM051000 25012KT P6SM SCT120=



000
FTUS43 KBIS 042000 AAA
TAFBIS
TAF AMD
KBIS 042026Z 0420/0518 32016KT P6SM SCT025
     FM050000 VRB06KT P6SM SKC=



000
FTUS43 KBIS 042000 AAA
TAFBIS
TAF AMD
KBIS 042026Z 0420/0518 32016KT P6SM SCT025
     FM050000 VRB06KT P6SM SKC=



000
FTUS43 KBIS 042000 AAA
TAFDIK
TAF AMD
KDIK 042010Z 0420/0518 30011KT P6SM FEW025
     FM050000 VRB06KT P6SM SKC
     FM051000 21011KT P6SM SCT250=



000
FTUS43 KBIS 041700
TAFMOT
TAF
KMOT 041732Z 0418/0518 29015G20KT P6SM SCT025
     FM050000 21006KT P6SM SKC=



000
FTUS43 KBIS 041700
TAFJMS
TAF
KJMS 041732Z 0418/0518 32016G24KT P6SM SCT025
      TEMPO 0418/0422 BKN025
     FM050100 27006KT P6SM SKC=



000
FTUS43 KBIS 041700
TAFISN
TAF
KISN 041732Z 0418/0518 32011KT P6SM SCT025
     FM050000 20005KT P6SM SKC=



000
FTUS43 KBIS 041700
TAFBIS
TAF
KBIS 041732Z 0418/0518 32017G25KT P6SM SCT025
      TEMPO 0418/0422 BKN025
     FM050000 VRB06KT P6SM SKC=



000
FTUS43 KBIS 041700
TAFDIK
TAF
KDIK 041732Z 0418/0518 32013G22KT P6SM SCT025
      TEMPO 0418/0422 BKN025
     FM050000 VRB06KT P6SM SKC
     FM051000 21011KT P6SM SCT250=



000
FTUS43 KBIS 041100
TAFJMS
TAF
KJMS 041120Z 0412/0512 31011KT P6SM SCT030
     FM041500 31016G24KT P6SM FEW100=



000
FTUS43 KBIS 041100
TAFBIS
TAF
KBIS 041120Z 0412/0512 32014KT P6SM SCT025
     FM041500 32011G20KT P6SM FEW250=



000
FTUS43 KBIS 041100
TAFDIK
TAF
KDIK 041120Z 0412/0512 31014G22KT P6SM FEW100
     FM050200 16004KT P6SM FEW200=



000
FTUS43 KBIS 041100
TAFISN
TAF
KISN 041120Z 0412/0512 30011KT P6SM FEW200
     FM050100 18005KT P6SM FEW100=



000
FTUS43 KBIS 041100
TAFMOT
TAF
KMOT 041120Z 0412/0512 29011KT P6SM FEW150
     FM041500 28015G20KT P6SM FEW250=



000
FTUS43 KBIS 040700 AAB
TAFBIS
TAF AMD
KBIS 040753Z 0408/0506 28011KT P6SM BKN045
     FM041400 31015G20KT P6SM FEW250=



000
FTUS43 KBIS 040700 AAB
TAFDIK
TAF AMD
KDIK 040701Z 0407/0506 32012KT P6SM FEW080
     FM041300 32012KT P6SM SCT030=



000
FTUS43 KBIS 040700 AAB
TAFDIK
TAF AMD
KDIK 040701Z 0407/0506 32012KT P6SM FEW080
     FM041300 32012KT P6SM SCT030=



000
FTUS43 KBIS 040600 AAA
TAFBIS
TAF AMD
KBIS 040600Z 0406/0506 32011KT P6SM SCT035
      TEMPO 0406/0408 32015G25KT 2SM -SN OVC025
     FM040800 31014KT P6SM OVC030
     FM041400 31015G20KT P6SM FEW250=



000
FTUS43 KBIS 040500 AAA
TAFDIK
TAF AMD
KDIK 040540Z 0406/0506 29011KT P6SM VCSH OVC040
      TEMPO 0406/0407 31018G25KT 2SM -SN OVC025
     FM040700 32015G22KT P6SM OVC030
     FM041300 32012KT P6SM SCT030=



000
FTUS43 KBIS 040500 AAA
TAFDIK
TAF AMD
KDIK 040540Z 0406/0506 29011KT P6SM VCSH OVC040
      TEMPO 0406/0407 31018G25KT 2SM -SN OVC025
     FM040700 32015G22KT P6SM OVC030
     FM041300 32012KT P6SM SCT030=



000
FTUS43 KBIS 040500
TAFJMS
TAF
KJMS 040520Z 0406/0506 29012KT P6SM SKC
     FM040800 31015KT P6SM BKN030
     FM041500 31016G26KT P6SM SCT035=



000
FTUS43 KBIS 040500
TAFDIK
TAF
KDIK 040520Z 0406/0506 29011KT P6SM VCSH OVC040
     FM040700 32015G22KT P6SM OVC030
     FM041300 32012KT P6SM SCT030=



000
FTUS43 KBIS 040500
TAFMOT
TAF
KMOT 040520Z 0406/0506 27011KT P6SM SCT100
     FM041500 29015KT P6SM SCT035=



000
FTUS43 KBIS 040500
TAFISN
TAF
KISN 040520Z 0406/0506 34016G22KT P6SM SCT100
     FM040700 31012KT P6SM FEW100=



000
FTUS43 KBIS 040500
TAFBIS
TAF
KBIS 040520Z 0406/0506 32011KT P6SM SCT035
     FM040700 31014KT P6SM -SN OVC025
     FM041400 31015G20KT P6SM FEW250=



    US Dept of Commerce
    National Oceanic and Atmospheric Administration
    National Weather Service
    1325 East West Highway
    Silver Spring, MD 20910
    Page Author: NWS Internet Services Team
Disclaimer
Information Quality
Credits
Glossary
Privacy Policy
Freedom of Information Act (FOIA)
About Us
Career Opportunities